createdAt,value
2017-10-10T00:00:49.759Z,10.10
2017-10-10T00:03:19.599Z,10.10
2017-10-10T00:05:49.306Z,10.10
2017-10-10T00:08:19.248Z,10.10
2017-10-10T00:10:49.800Z,10.20
2017-10-10T00:13:19.549Z,10.20
2017-10-10T00:15:49.274Z,10.20
2017-10-10T00:18:19.177Z,10.10
2017-10-10T00:20:48.903Z,10.10
2017-10-10T00:23:18.719Z,10.10
2017-10-10T00:25:48.423Z,10.10
2017-10-10T00:28:18.335Z,10.00
2017-10-10T00:30:48.046Z,10.00
2017-10-10T00:33:17.747Z,10.10
2017-10-10T00:35:47.666Z,10.10
2017-10-10T00:38:17.366Z,10.10
2017-10-10T00:40:47.098Z,10.10
2017-10-10T00:43:16.090Z,10.10
2017-10-10T00:45:45.809Z,10.20
2017-10-10T00:48:14.996Z,10.10
2017-10-10T00:50:44.674Z,10.10
2017-10-10T00:53:14.514Z,10.10
2017-10-10T00:55:43.854Z,10.10
2017-10-10T00:58:13.668Z,10.20
2017-10-10T01:00:42.457Z,10.10
2017-10-10T01:03:11.939Z,10.20
2017-10-10T01:05:41.457Z,10.10
2017-10-10T01:08:11.122Z,10.20
2017-10-10T01:10:40.851Z,10.20
2017-10-10T01:13:10.186Z,10.20
2017-10-10T01:15:40.339Z,10.20
2017-10-10T01:18:09.865Z,10.20
2017-10-10T01:20:38.842Z,10.30
2017-10-10T01:23:07.851Z,10.30
2017-10-10T01:25:36.994Z,10.30
2017-10-10T01:28:07.172Z,10.30
2017-10-10T01:30:35.985Z,10.30
2017-10-10T01:33:05.132Z,10.30
2017-10-10T01:35:33.917Z,10.30
2017-10-10T01:38:02.729Z,10.30
2017-10-10T01:40:31.526Z,10.40
2017-10-10T01:43:00.503Z,10.40
2017-10-10T01:45:29.875Z,10.40
2017-10-10T01:48:00.319Z,10.50
2017-10-10T01:50:29.680Z,10.40
2017-10-10T01:52:59.363Z,10.50
2017-10-10T01:55:29.059Z,10.50
2017-10-10T01:57:59.011Z,10.50
2017-10-10T02:00:27.994Z,10.50
2017-10-10T02:02:57.482Z,10.50
2017-10-10T02:05:27.198Z,10.50
2017-10-10T02:07:56.675Z,10.50
2017-10-10T02:10:26.366Z,10.50
2017-10-10T02:12:55.884Z,10.50
2017-10-10T02:15:26.379Z,10.50
2017-10-10T02:17:56.106Z,10.40
2017-10-10T02:20:25.674Z,10.50
2017-10-10T02:22:55.391Z,10.50
2017-10-10T02:25:25.157Z,10.50
2017-10-10T02:27:54.862Z,10.40
2017-10-10T02:30:24.593Z,10.40
2017-10-10T02:32:54.325Z,10.50
2017-10-10T02:35:24.009Z,10.50
2017-10-10T02:37:53.516Z,10.50
2017-10-10T02:40:23.048Z,10.50
2017-10-10T02:42:52.436Z,10.50
2017-10-10T02:45:21.915Z,10.50
2017-10-10T02:47:51.635Z,10.50
2017-10-10T02:50:21.315Z,10.50
2017-10-10T02:52:51.775Z,10.50
2017-10-10T02:55:20.770Z,10.50
2017-10-10T02:57:50.465Z,10.50
2017-10-10T03:00:20.471Z,10.50
2017-10-10T03:02:50.716Z,10.50
2017-10-10T03:05:20.556Z,10.50
2017-10-10T03:07:50.237Z,10.60
2017-10-10T03:10:19.951Z,10.60
2017-10-10T03:12:49.450Z,10.60
2017-10-10T03:15:19.173Z,10.60
2017-10-10T03:17:48.854Z,10.60
2017-10-10T03:20:17.852Z,10.70
2017-10-10T03:22:47.605Z,10.70
2017-10-10T03:25:17.283Z,10.60
2017-10-10T03:27:47.038Z,10.60
2017-10-10T03:30:16.743Z,10.60
2017-10-10T03:32:46.450Z,10.60
2017-10-10T03:35:15.984Z,10.60
2017-10-10T03:37:45.527Z,10.60
2017-10-10T03:40:15.240Z,10.60
2017-10-10T03:42:44.792Z,10.60
2017-10-10T03:45:14.502Z,10.60
2017-10-10T03:47:44.947Z,10.60
2017-10-10T03:50:15.423Z,10.70
2017-10-10T03:52:45.109Z,10.70
2017-10-10T03:55:14.912Z,10.80
2017-10-10T03:57:45.404Z,10.70
2017-10-10T04:00:14.734Z,10.70
2017-10-10T04:02:45.027Z,10.70
2017-10-10T04:05:14.725Z,10.70
2017-10-10T04:07:44.467Z,10.70
2017-10-10T04:10:14.244Z,10.60
2017-10-10T04:12:43.945Z,10.60
2017-10-10T04:15:13.478Z,10.60
2017-10-10T04:17:43.177Z,10.60
2017-10-10T04:20:12.928Z,10.50
2017-10-10T04:22:42.612Z,10.60
2017-10-10T04:25:11.617Z,10.60
2017-10-10T04:27:41.354Z,10.60
2017-10-10T04:30:11.807Z,10.60
2017-10-10T04:32:41.499Z,10.60
2017-10-10T04:35:11.249Z,10.50
2017-10-10T04:37:40.954Z,10.50
2017-10-10T04:40:10.664Z,10.50
2017-10-10T04:42:40.342Z,10.50
2017-10-10T04:45:10.803Z,10.50
2017-10-10T04:47:40.499Z,10.50
2017-10-10T04:50:10.196Z,10.50
2017-10-10T04:52:39.933Z,10.50
2017-10-10T04:55:09.448Z,10.50
2017-10-10T04:57:38.957Z,10.50
2017-10-10T05:00:08.718Z,10.50
2017-10-10T05:02:38.195Z,10.40
2017-10-10T05:05:07.891Z,10.40
2017-10-10T05:07:37.586Z,10.40
2017-10-10T05:10:07.259Z,10.50
2017-10-10T05:12:37.714Z,10.40
2017-10-10T05:15:07.430Z,10.40
2017-10-10T05:17:36.960Z,10.50
2017-10-10T05:20:06.684Z,10.50
2017-10-10T05:22:36.002Z,10.50
2017-10-10T05:25:06.498Z,10.40
2017-10-10T05:27:36.175Z,10.40
2017-10-10T05:30:05.923Z,10.40
2017-10-10T05:32:35.048Z,10.40
2017-10-10T05:35:05.521Z,10.40
2017-10-10T05:37:34.863Z,10.40
2017-10-10T05:40:05.366Z,10.40
2017-10-10T05:42:34.868Z,10.40
2017-10-10T05:45:04.391Z,10.40
2017-10-10T05:47:34.101Z,10.40
2017-10-10T05:50:03.858Z,10.40
2017-10-10T05:52:33.546Z,10.50
2017-10-10T05:55:04.049Z,10.50
2017-10-10T05:57:33.735Z,10.40
2017-10-10T06:00:03.095Z,10.50
2017-10-10T06:02:33.350Z,10.50
2017-10-10T06:05:03.102Z,10.50
2017-10-10T06:07:32.635Z,10.50
2017-10-10T06:10:02.924Z,10.50
2017-10-10T06:12:32.782Z,10.50
2017-10-10T06:15:02.140Z,10.50
2017-10-10T06:17:31.832Z,10.50
2017-10-10T06:20:01.519Z,10.50
2017-10-10T06:22:31.215Z,10.50
2017-10-10T06:25:00.926Z,10.50
2017-10-10T06:27:30.600Z,10.50
2017-10-10T06:30:00.910Z,10.50
2017-10-10T06:32:30.591Z,10.50
2017-10-10T06:35:00.090Z,10.60
2017-10-10T06:37:29.789Z,10.60
2017-10-10T06:39:59.269Z,10.60
2017-10-10T06:42:28.997Z,10.60
2017-10-10T06:44:59.514Z,10.70
2017-10-10T06:47:30.033Z,10.70
2017-10-10T06:49:59.696Z,10.70
2017-10-10T06:52:29.409Z,10.70
2017-10-10T06:54:59.152Z,10.60
2017-10-10T06:57:28.843Z,10.60
2017-10-10T06:59:58.573Z,10.60
2017-10-10T07:02:28.287Z,10.60
2017-10-10T07:04:57.993Z,10.60
2017-10-10T07:07:27.777Z,10.60
2017-10-10T07:09:57.463Z,10.60
2017-10-10T07:12:27.161Z,10.60
2017-10-10T07:14:56.841Z,10.60
2017-10-10T07:17:26.538Z,10.60
2017-10-10T07:19:56.030Z,10.70
2017-10-10T07:22:25.749Z,10.70
2017-10-10T07:24:55.446Z,10.70
2017-10-10T07:27:25.165Z,10.80
2017-10-10T07:29:54.866Z,10.80
2017-10-10T07:32:24.543Z,10.90
2017-10-10T07:34:54.270Z,10.90
2017-10-10T08:59:23.992Z,11.10
2017-10-10T09:01:53.563Z,11.10
2017-10-10T09:04:23.102Z,11.20
2017-10-10T09:06:52.799Z,11.40
2017-10-10T09:09:22.514Z,11.40
2017-10-10T09:11:52.190Z,11.40
2017-10-10T09:14:21.924Z,11.40
2017-10-10T09:16:51.608Z,11.50
2017-10-10T09:19:21.299Z,11.50
2017-10-10T09:21:51.760Z,11.60
2017-10-10T09:24:21.439Z,11.60
2017-10-10T09:26:51.168Z,11.70
2017-10-10T09:29:20.847Z,11.80
2017-10-10T09:31:51.307Z,11.70
2017-10-10T09:34:21.042Z,11.70
2017-10-10T09:36:50.719Z,11.80
2017-10-10T09:39:20.499Z,11.90
2017-10-10T09:41:50.931Z,12.20
2017-10-10T09:44:21.411Z,12.30
2017-10-10T09:46:51.134Z,12.20
2017-10-10T09:49:20.812Z,12.30
2017-10-10T09:51:50.538Z,12.30
2017-10-10T09:54:20.220Z,12.30
2017-10-10T09:56:49.947Z,12.30
2017-10-10T09:59:19.606Z,12.30
2017-10-10T10:01:49.308Z,12.30
2017-10-10T10:04:19.006Z,12.30
2017-10-10T10:06:48.692Z,12.30
2017-10-10T10:09:18.187Z,12.40
2017-10-10T10:11:47.927Z,12.40
2017-10-10T10:14:17.653Z,12.40
2017-10-10T10:16:47.591Z,12.40
2017-10-10T10:19:18.080Z,12.40
2017-10-10T10:21:47.756Z,12.30
2017-10-10T10:24:17.457Z,12.30
2017-10-10T10:26:47.131Z,12.40
2017-10-10T10:29:16.831Z,12.30
2017-10-10T10:31:46.530Z,12.30
2017-10-10T10:34:16.245Z,12.30
2017-10-10T10:36:45.993Z,12.40
2017-10-10T10:39:16.463Z,12.40
2017-10-10T10:41:46.159Z,12.40
2017-10-10T10:44:15.839Z,12.60
2017-10-10T10:46:46.313Z,12.80
2017-10-10T10:49:16.007Z,12.80
2017-10-10T10:51:45.702Z,12.90
2017-10-10T10:54:15.401Z,13.00
2017-10-10T10:56:45.890Z,13.30
2017-10-10T10:59:15.598Z,13.30
2017-10-10T11:01:45.293Z,13.30
2017-10-10T11:04:14.988Z,13.30
2017-10-10T11:06:44.671Z,13.30
2017-10-10T11:09:15.137Z,13.40
2017-10-10T11:11:44.688Z,13.40
2017-10-10T11:14:14.368Z,13.40
2017-10-10T11:16:44.068Z,13.20
2017-10-10T11:19:13.766Z,13.20
2017-10-10T11:21:43.451Z,13.20
2017-10-10T11:24:13.143Z,13.20
2017-10-10T11:26:43.641Z,13.30
2017-10-10T11:29:13.579Z,13.20
2017-10-10T11:31:43.495Z,13.30
2017-10-10T11:34:13.047Z,13.20
2017-10-10T11:36:42.742Z,13.20
2017-10-10T11:39:12.299Z,13.20
2017-10-10T11:41:41.982Z,13.30
2017-10-10T11:44:11.691Z,13.30
2017-10-10T11:46:41.387Z,13.40
2017-10-10T11:49:11.077Z,13.40
2017-10-10T11:51:41.201Z,13.40
2017-10-10T11:54:11.726Z,13.40
2017-10-10T11:56:42.219Z,13.50
2017-10-10T11:59:12.203Z,13.40
2017-10-10T12:01:41.888Z,13.40
2017-10-10T12:04:12.382Z,13.40
2017-10-10T12:06:42.079Z,13.30
2017-10-10T12:09:11.781Z,13.40
2017-10-10T12:11:41.484Z,13.50
2017-10-10T12:14:11.190Z,13.50
2017-10-10T12:16:40.891Z,13.50
2017-10-10T12:19:10.599Z,13.50
2017-10-10T12:21:40.303Z,13.40
2017-10-10T12:24:10.013Z,13.40
2017-10-10T12:26:39.696Z,13.40
2017-10-10T12:29:10.205Z,13.30
2017-10-10T12:31:39.733Z,13.30
2017-10-10T12:34:09.289Z,13.30
2017-10-10T12:36:38.975Z,13.40
2017-10-10T12:39:08.714Z,13.40
2017-10-10T12:41:38.387Z,13.40
2017-10-10T12:44:08.872Z,13.40
2017-10-10T12:46:38.546Z,13.40
2017-10-10T12:49:08.242Z,13.40
2017-10-10T12:51:37.938Z,13.40
2017-10-10T12:54:08.403Z,13.40
2017-10-10T12:56:38.098Z,13.40
2017-10-10T12:59:07.270Z,13.40
2017-10-10T13:01:37.730Z,13.40
2017-10-10T13:04:07.278Z,13.40
2017-10-10T13:06:36.778Z,13.40
2017-10-10T13:09:06.108Z,13.40
2017-10-10T13:11:36.278Z,13.40
2017-10-10T13:14:05.964Z,13.40
2017-10-10T13:16:35.704Z,13.40
2017-10-10T13:19:05.384Z,13.50
2017-10-10T13:21:35.070Z,13.40
2017-10-10T13:24:05.576Z,13.30
2017-10-10T13:26:35.263Z,13.30
2017-10-10T13:29:05.064Z,13.30
2017-10-10T13:31:34.762Z,13.30
2017-10-10T13:34:04.451Z,13.20
2017-10-10T13:36:34.226Z,13.20
2017-10-10T13:39:03.418Z,13.20
2017-10-10T13:41:33.155Z,13.20
2017-10-10T13:44:02.832Z,13.20
2017-10-10T13:46:32.555Z,13.20
2017-10-10T13:49:02.064Z,13.20
2017-10-10T13:51:31.567Z,13.10
2017-10-10T13:54:01.295Z,13.20
2017-10-10T13:56:30.795Z,13.20
2017-10-10T13:59:00.510Z,13.20
2017-10-10T14:01:30.721Z,13.30
2017-10-10T14:04:00.422Z,13.30
2017-10-10T14:06:30.155Z,13.30
2017-10-10T14:08:59.841Z,13.30
2017-10-10T14:11:29.565Z,13.30
2017-10-10T14:14:00.059Z,13.40
2017-10-10T14:16:29.770Z,13.40
2017-10-10T14:18:59.523Z,13.40
2017-10-10T14:21:29.072Z,13.50
2017-10-10T14:23:58.751Z,13.50
2017-10-10T14:26:29.244Z,13.50
2017-10-10T14:28:58.970Z,13.50
2017-10-10T14:31:28.669Z,13.50
2017-10-10T14:33:58.361Z,13.50
2017-10-10T14:36:28.034Z,13.50
2017-10-10T14:38:57.748Z,13.50
2017-10-10T14:41:27.456Z,13.40
2017-10-10T14:43:56.952Z,13.50
2017-10-10T14:46:27.443Z,13.40
2017-10-10T14:48:57.155Z,13.30
2017-10-10T14:51:26.834Z,13.40
2017-10-10T14:53:56.551Z,13.40
2017-10-10T14:56:26.298Z,13.40
2017-10-10T14:58:56.048Z,13.30
2017-10-10T15:01:26.231Z,13.40
2017-10-10T15:03:56.015Z,13.40
2017-10-10T15:06:25.717Z,13.50
2017-10-10T15:08:55.455Z,13.50
2017-10-10T15:11:25.478Z,13.60
2017-10-10T15:13:55.335Z,13.60
2017-10-10T15:16:25.796Z,13.70
2017-10-10T15:18:55.478Z,13.70
2017-10-10T15:21:25.182Z,13.70
2017-10-10T15:23:54.903Z,13.70
2017-10-10T15:26:24.719Z,13.70
2017-10-10T15:28:54.820Z,13.60
2017-10-10T15:31:25.288Z,13.60
2017-10-10T15:33:54.974Z,13.60
2017-10-10T15:36:24.803Z,13.70
2017-10-10T15:38:54.803Z,13.70
2017-10-10T15:41:24.484Z,13.60
2017-10-10T15:43:54.979Z,13.70
2017-10-10T15:46:24.652Z,13.70
2017-10-10T15:48:54.154Z,13.70
2017-10-10T15:51:23.892Z,13.60
2017-10-10T15:53:53.582Z,13.70
2017-10-10T15:56:23.330Z,13.70
2017-10-10T15:58:53.045Z,13.70
2017-10-10T16:01:22.729Z,13.60
2017-10-10T16:03:52.487Z,13.60
2017-10-10T16:06:22.155Z,13.60
2017-10-10T16:08:51.858Z,13.60
2017-10-10T16:11:21.536Z,13.50
2017-10-10T16:13:51.234Z,13.50
2017-10-10T16:16:20.987Z,13.50
2017-10-10T16:18:50.671Z,13.50
2017-10-10T16:21:21.170Z,13.50
2017-10-10T16:23:50.883Z,13.50
2017-10-10T16:26:20.607Z,13.50
2017-10-10T16:28:50.306Z,13.50
2017-10-10T16:31:19.667Z,13.50
2017-10-10T16:33:49.346Z,13.50
2017-10-10T16:36:19.809Z,13.50
2017-10-10T16:38:49.543Z,13.40
2017-10-10T16:41:19.239Z,13.50
2017-10-10T16:43:48.961Z,13.50
2017-10-10T16:46:18.646Z,13.50
2017-10-10T16:48:48.349Z,13.40
2017-10-10T16:51:18.092Z,13.50
2017-10-10T16:53:47.789Z,13.50
2017-10-10T16:56:17.328Z,13.50
2017-10-10T16:58:47.112Z,13.50
2017-10-10T17:01:16.812Z,13.40
2017-10-10T17:03:46.538Z,13.50
2017-10-10T17:06:16.239Z,13.40
2017-10-10T17:08:48.813Z,13.30
2017-10-10T17:11:18.494Z,13.30
2017-10-10T17:13:48.201Z,13.20
2017-10-10T17:16:18.720Z,13.20
2017-10-10T17:18:49.192Z,13.20
2017-10-10T17:21:18.886Z,13.10
2017-10-10T17:23:48.638Z,13.20
2017-10-10T17:26:18.329Z,13.20
2017-10-10T17:28:48.015Z,13.10
2017-10-10T17:31:17.712Z,13.20
2017-10-10T17:33:47.985Z,13.20
2017-10-10T17:36:18.081Z,13.20
2017-10-10T17:38:47.787Z,13.20
2017-10-10T17:41:17.559Z,13.20
2017-10-10T17:43:47.241Z,13.20
2017-10-10T17:46:16.953Z,13.20
2017-10-10T17:48:46.667Z,13.20
2017-10-10T17:51:16.345Z,13.20
2017-10-10T17:53:46.094Z,13.30
2017-10-10T17:56:15.815Z,13.30
2017-10-10T17:58:45.447Z,13.30
2017-10-10T18:01:15.019Z,13.20
2017-10-10T18:03:44.706Z,13.30
2017-10-10T18:06:14.403Z,13.30
2017-10-10T18:08:44.107Z,13.30
2017-10-10T18:11:13.594Z,13.20
2017-10-10T18:13:43.324Z,13.30
2017-10-10T18:16:13.002Z,13.30
2017-10-10T18:18:43.486Z,13.30
2017-10-10T18:21:13.036Z,13.30
2017-10-10T18:23:43.483Z,13.40
2017-10-10T18:26:13.180Z,13.40
2017-10-10T18:28:43.683Z,13.40
2017-10-10T18:31:13.161Z,13.30
2017-10-10T18:33:42.876Z,13.40
2017-10-10T18:36:12.610Z,13.30
2017-10-10T18:38:42.103Z,13.30
2017-10-10T18:41:11.599Z,13.30
2017-10-10T18:43:42.140Z,13.40
2017-10-10T18:46:11.646Z,13.30
2017-10-10T18:48:41.151Z,13.30
2017-10-10T18:51:10.479Z,13.30
2017-10-10T18:53:40.164Z,13.30
2017-10-10T18:56:09.999Z,13.30
2017-10-10T18:58:39.687Z,13.30
2017-10-10T19:01:09.608Z,13.30
2017-10-10T19:03:39.614Z,13.30
2017-10-10T19:06:09.086Z,13.30
2017-10-10T19:08:38.613Z,13.30
2017-10-10T19:11:08.139Z,13.30
2017-10-10T19:13:38.247Z,13.30
2017-10-10T19:16:08.089Z,13.30
2017-10-10T19:18:37.870Z,13.30
2017-10-10T19:21:07.761Z,13.30
2017-10-10T19:23:37.622Z,13.30
2017-10-10T19:26:07.520Z,13.30
2017-10-10T19:28:37.248Z,13.40
2017-10-10T19:31:06.957Z,13.30
2017-10-10T19:33:36.639Z,13.30
2017-10-10T19:36:06.323Z,13.40
2017-10-10T19:38:36.028Z,13.40
2017-10-10T19:41:05.773Z,13.40
2017-10-10T19:43:35.466Z,13.40
2017-10-10T19:46:05.212Z,13.40
2017-10-10T19:48:34.942Z,13.30
2017-10-10T19:51:04.664Z,13.40
2017-10-10T19:53:35.165Z,13.40
2017-10-10T19:56:05.088Z,13.30
2017-10-10T19:58:35.019Z,13.40
2017-10-10T20:01:05.483Z,13.40
2017-10-10T20:03:34.895Z,13.40
2017-10-10T20:06:04.642Z,13.40
2017-10-10T20:08:34.606Z,13.40
2017-10-10T20:11:04.591Z,13.40
2017-10-10T20:13:34.959Z,13.40
2017-10-10T20:16:04.482Z,13.40
2017-10-10T20:18:33.639Z,13.50
2017-10-10T20:21:03.181Z,13.50
2017-10-10T20:23:32.924Z,13.50
2017-10-10T20:26:02.441Z,13.50
2017-10-10T20:28:32.149Z,13.50
2017-10-10T20:31:03.876Z,13.60
2017-10-10T20:33:35.008Z,13.60
2017-10-10T20:36:04.783Z,13.60
2017-10-10T20:38:34.619Z,13.60
2017-10-10T20:41:04.330Z,13.50
2017-10-10T20:43:33.840Z,13.60
2017-10-10T20:46:03.526Z,13.60
2017-10-10T20:48:33.259Z,13.60
2017-10-10T20:51:03.998Z,13.60
2017-10-10T20:53:33.770Z,13.60
2017-10-10T20:56:04.329Z,13.50
2017-10-10T20:58:34.096Z,13.50
2017-10-10T21:01:03.788Z,13.60
2017-10-10T21:03:33.297Z,13.60
2017-10-10T21:06:03.215Z,13.60
2017-10-10T21:08:32.895Z,13.60
2017-10-10T21:11:02.608Z,13.60
2017-10-10T21:13:32.307Z,13.60
2017-10-10T21:16:01.830Z,13.60
2017-10-10T21:18:31.514Z,13.60
2017-10-10T21:21:01.255Z,13.60
2017-10-10T21:23:30.939Z,13.60
2017-10-10T21:26:00.657Z,13.60
2017-10-10T21:28:30.388Z,13.70
2017-10-10T21:31:00.071Z,13.70
2017-10-10T21:33:29.777Z,13.70
2017-10-10T21:36:00.235Z,13.70
2017-10-10T21:38:29.982Z,13.70
2017-10-10T21:40:59.660Z,13.70
2017-10-10T21:43:29.361Z,13.80
2017-10-10T21:45:59.131Z,13.80
2017-10-10T21:48:29.602Z,13.80
2017-10-10T21:50:59.104Z,13.80
2017-10-10T21:53:28.622Z,13.80
2017-10-10T21:55:58.331Z,13.80
2017-10-10T21:58:28.029Z,13.80
2017-10-10T22:00:57.741Z,13.80
2017-10-10T22:03:27.249Z,13.80
2017-10-10T22:05:56.934Z,13.80
2017-10-10T22:08:26.486Z,13.80
2017-10-10T22:10:56.158Z,13.90
2017-10-10T22:13:25.891Z,13.80
2017-10-10T22:15:55.598Z,13.90
2017-10-10T22:18:25.309Z,13.80
2017-10-10T22:20:55.026Z,13.90
2017-10-10T22:23:24.720Z,13.90
2017-10-10T22:25:54.425Z,13.90
2017-10-10T22:28:23.912Z,13.90
2017-10-10T22:30:53.612Z,13.90
2017-10-10T22:33:24.103Z,13.90
2017-10-10T22:35:53.791Z,13.90
2017-10-10T22:38:23.509Z,14.00
2017-10-10T22:40:53.197Z,13.90
2017-10-10T22:43:22.885Z,14.00
2017-10-10T22:45:52.618Z,14.00
2017-10-10T22:48:22.395Z,13.90
2017-10-10T22:50:52.857Z,14.00
2017-10-10T22:53:22.575Z,14.00
2017-10-10T22:55:52.282Z,14.00
2017-10-10T22:58:21.967Z,14.00
2017-10-10T23:00:51.646Z,14.00
2017-10-10T23:03:21.945Z,14.00
2017-10-10T23:05:51.453Z,14.00
2017-10-10T23:08:21.175Z,14.00
2017-10-10T23:10:51.262Z,14.00
2017-10-10T23:13:20.783Z,14.00
2017-10-10T23:15:50.296Z,14.00
2017-10-10T23:18:20.004Z,14.00
2017-10-10T23:20:49.758Z,14.00
2017-10-10T23:23:20.251Z,14.00
2017-10-10T23:25:49.947Z,13.90
2017-10-10T23:28:19.669Z,14.00
2017-10-10T23:30:49.352Z,14.00
2017-10-10T23:33:19.067Z,14.00
2017-10-10T23:35:48.781Z,14.00
2017-10-10T23:38:18.521Z,14.00
2017-10-10T23:40:49.015Z,14.00
2017-10-10T23:43:18.690Z,14.00
2017-10-10T23:45:49.223Z,14.00
2017-10-10T23:48:19.677Z,14.00
2017-10-10T23:50:49.395Z,14.00
2017-10-10T23:53:19.090Z,14.00
2017-10-10T23:55:48.801Z,14.00
2017-10-10T23:58:18.523Z,14.00
